Time;durP1;ratioP1;P1;durP2;ratioP2;P2;SDS_P1;SDS_P2;PMS_P1;PMS_P2;Temp;Humidity;BMP_temperature;BMP_pressure;BME280_temperature;BME280_humidity;BME280_pressure;Samples;Min_cycle;Max_cycle;Signal;HPM_P1;HPM_P2
2022/05/20 00:02:06;;;;;;;18.87;1.73;;;;;;;24.71;41.89;99761.09;7309557;19;142893;-38
2022/05/20 00:04:31;;;;;;;36.73;3.20;;;;;;;24.70;41.74;99756.78;7310695;19;130117;-38
2022/05/20 00:06:57;;;;;;;14.77;1.27;;;;;;;24.71;42.34;99774.22;7307952;19;158076;-41
2022/05/20 00:09:22;;;;;;;20.00;1.67;;;;;;;24.70;41.77;99775.19;7309427;19;155542;-36
2022/05/20 00:11:48;;;;;;;26.63;2.35;;;;;;;24.72;41.69;99778.50;7309149;19;129064;-39
2022/05/20 00:14:13;;;;;;;21.87;2.03;;;;;;;24.73;42.03;99780.13;7307985;19;129364;-40
2022/05/20 00:16:39;;;;;;;29.73;2.67;;;;;;;24.72;41.55;99783.75;7308324;19;129236;-36
2022/05/20 00:19:06;;;;;;;35.13;3.27;;;;;;;24.71;41.37;99780.28;7309690;19;128950;-37
2022/05/20 00:21:32;;;;;;;28.08;2.53;;;;;;;24.71;41.54;99788.19;7309498;19;129233;-41
2022/05/20 00:23:57;;;;;;;27.03;2.43;;;;;;;24.69;41.74;99784.91;7308876;19;129281;-40
2022/05/20 00:26:23;;;;;;;17.10;1.47;;;;;;;24.73;42.26;99786.22;7306969;19;158531;-39
2022/05/20 00:28:48;;;;;;;27.63;2.43;;;;;;;24.72;41.72;99797.75;7308970;19;129686;-37
2022/05/20 00:31:15;;;;;;;20.47;1.90;;;;;;;24.72;42.22;99783.75;7309531;19;128847;-40
2022/05/20 00:33:40;;;;;;;28.60;2.72;;;;;;;24.63;41.73;99780.22;7307511;19;131578;-38
2022/05/20 00:36:06;;;;;;;21.67;2.07;;;;;;;24.73;41.98;99795.91;7307781;19;129781;-40
2022/05/20 00:38:31;;;;;;;26.30;2.40;;;;;;;24.64;41.43;99783.69;7307737;19;155754;-38
2022/05/20 00:41:00;;;;;;;28.55;2.33;;;;;;;24.71;41.82;99808.41;7307986;19;131566;-38
2022/05/20 00:43:26;;;;;;;24.05;2.08;;;;;;;24.73;41.93;99807.25;7308619;19;129085;-42
2022/05/20 00:45:53;;;;;;;20.20;1.73;;;;;;;24.74;41.52;99813.34;7308434;19;131601;-37
2022/05/20 00:48:18;;;;;;;27.13;2.63;;;;;;;24.73;42.25;99819.56;7308413;19;129271;-39
2022/05/20 00:50:56;;;;;;;19.60;1.77;;;;;;;24.75;41.89;99820.25;7307319;19;137901;-38
2022/05/20 00:53:26;;;;;;;17.23;1.63;;;;;;;24.72;41.29;99821.41;7308057;19;130680;-39
2022/05/20 00:55:52;;;;;;;19.27;1.48;;;;;;;24.72;42.40;99820.56;7307564;19;130479;-38
2022/05/20 00:58:23;;;;;;;22.73;2.10;;;;;;;24.71;41.43;99816.31;7310230;19;154465;-37
2022/05/20 01:00:54;;;;;;;25.20;2.15;;;;;;;24.76;41.36;99837.72;7315601;19;129282;-37
2022/05/20 01:03:24;;;;;;;23.83;2.20;;;;;;;24.76;41.74;99835.06;7316603;19;131154;-37
2022/05/20 01:05:51;;;;;;;30.30;2.30;;;;;;;24.76;42.02;99842.97;7315406;19;130101;-37
2022/05/20 01:08:21;;;;;;;28.70;2.67;;;;;;;24.76;41.66;99854.28;7316566;19;129066;-40
2022/05/20 01:10:47;;;;;;;19.85;1.83;;;;;;;24.76;41.74;99842.97;7315916;19;129279;-40
2022/05/20 01:13:15;;;;;;;21.90;2.17;;;;;;;24.77;41.72;99844.59;7314166;19;130791;-37
2022/05/20 01:15:41;;;;;;;26.75;2.63;;;;;;;24.77;42.25;99834.09;7313564;19;130919;-38
2022/05/20 01:18:08;;;;;;;25.90;2.22;;;;;;;24.74;41.35;99834.41;7313907;19;129343;-41
2022/05/20 01:20:38;;;;;;;25.80;2.15;;;;;;;24.74;41.67;99834.41;7315337;19;129465;-38
2022/05/20 01:23:16;;;;;;;20.35;1.70;;;;;;;24.77;41.95;99839.34;7311985;19;129638;-38
2022/05/20 01:25:43;;;;;;;;;;;;;;;24.65;41.74;99825.59;7315327;19;130501;-38
2022/05/20 01:28:09;;;;;;;21.05;2.00;;;;;;;24.73;42.22;99835.34;7315585;19;129109;-38
2022/05/20 01:30:34;;;;;;;27.90;2.40;;;;;;;24.74;41.51;99842.28;7314976;19;129879;-37
2022/05/20 01:33:07;;;;;;;17.90;1.50;;;;;;;24.76;41.97;99842.97;7314196;19;129017;-43
2022/05/20 01:35:42;;;;;;;40.15;3.65;;;;;;;24.76;41.61;99842.97;7313143;19;130108;-37
2022/05/20 01:38:10;;;;;;;27.83;2.58;;;;;;;24.74;42.06;99839.66;7314184;19;129035;-37
2022/05/20 01:40:42;;;;;;;24.77;2.25;;;;;;;24.75;42.25;99841.28;7314761;19;129047;-36
2022/05/20 01:43:19;;;;;;;10.40;1.17;;;;;;;24.76;42.05;99837.72;7314501;19;129614;-37
2022/05/20 01:45:53;;;;;;;27.15;2.38;;;;;;;24.78;41.41;99841.81;7312127;19;158773;-37
2022/05/20 01:48:29;;;;;;;21.35;1.95;;;;;;;24.65;41.81;99830.84;7314666;19;129964;-36
2022/05/20 01:50:55;;;;;;;26.35;2.25;;;;;;;24.77;41.64;99845.44;7313129;19;129044;-37
2022/05/20 01:53:31;;;;;;;18.47;1.60;;;;;;;24.74;41.30;99842.28;7313270;19;129108;-38
2022/05/20 01:56:09;;;;;;;32.67;2.95;;;;;;;24.77;41.88;99840.19;7313497;19;129378;-39
2022/05/20 01:58:47;;;;;;;16.77;1.83;;;;;;;24.71;41.40;99824.19;7313635;19;130108;-37
2022/05/20 02:01:33;;;;;;;22.88;2.47;;;;;;;24.77;41.29;99845.44;7315024;19;128913;-37
2022/05/20 02:04:12;;;;;;;20.65;1.70;;;;;;;24.75;41.90;99847.38;7311167;19;129396;-39
2022/05/20 02:06:43;;;;;;;32.10;2.92;;;;;;;24.76;41.99;99837.72;7312386;19;129585;-37
2022/05/20 02:09:17;;;;;;;27.35;2.70;;;;;;;24.75;41.74;99836.03;7313404;19;129240;-40
2022/05/20 02:11:51;;;;;;;42.70;3.85;;;;;;;24.77;41.50;99837.53;7313324;19;128847;-36
2022/05/20 02:14:40;;;;;;;27.08;2.33;;;;;;;24.74;41.72;99829.13;7311791;19;130340;-37
2022/05/20 02:17:05;;;;;;;27.23;2.35;;;;;;;24.77;41.68;99834.09;7311823;19;129145;-39
2022/05/20 02:19:41;;;;;;;23.67;2.07;;;;;;;24.80;41.03;99841.66;7312912;19;154691;-37
2022/05/20 02:22:13;;;;;;;31.83;2.72;;;;;;;24.79;41.72;99843.44;7313046;19;128860;-38
2022/05/20 02:24:40;;;;;;;25.55;2.28;;;;;;;24.79;41.71;99840.81;7313796;19;129242;-37
2022/05/20 02:27:07;;;;;;;22.48;2.03;;;;;;;24.77;41.73;99847.22;7310942;19;129923;-39
2022/05/20 02:29:45;;;;;;;17.45;1.48;;;;;;;24.77;41.74;99848.06;7313372;19;129694;-38
2022/05/20 02:32:28;;;;;;;21.20;1.92;;;;;;;24.78;41.33;99859.38;7313221;19;130731;-38
2022/05/20 02:34:53;;;;;;;17.42;1.63;;;;;;;24.72;41.70;99841.59;7310030;19;130341;-36
2022/05/20 02:37:29;;;;;;;19.43;1.53;;;;;;;24.78;41.69;99851.50;7311143;19;129587;-38
2022/05/20 02:39:56;;;;;;;28.83;2.38;;;;;;;24.77;41.38;99857.75;7313382;19;129157;-37
2022/05/20 02:42:21;;;;;;;10.55;0.95;;;;;;;24.77;41.78;99866.47;7314379;19;129366;-37
2022/05/20 02:44:47;;;;;;;30.73;2.50;;;;;;;24.79;41.73;99872.38;7312937;19;130766;-38
2022/05/20 02:47:13;;;;;;;16.88;1.67;;;;;;;24.78;41.72;99872.53;7309814;19;129816;-38
2022/05/20 02:49:38;;;;;;;24.97;2.57;;;;;;;24.79;42.04;99866.31;7313252;19;128909;-38
2022/05/20 02:52:05;;;;;;;27.63;2.47;;;;;;;24.77;41.35;99870.91;7312480;19;129410;-38
2022/05/20 02:54:30;;;;;;;23.95;2.05;;;;;;;24.77;41.92;99881.41;7311077;19;131280;-39
2022/05/20 02:56:56;;;;;;;21.83;1.75;;;;;;;24.77;42.12;99874.38;7309710;19;129762;-38
2022/05/20 03:04:49;;;;;;;18.13;1.58;;;;;;;24.79;41.81;99874.22;7311812;19;129932;-38
2022/05/20 03:07:14;;;;;;;22.70;2.00;;;;;;;24.74;42.15;99876.47;7308713;19;157458;-37
2022/05/20 03:09:40;;;;;;;23.07;2.10;;;;;;;24.78;41.52;99885.69;7311350;19;129972;-37
2022/05/20 03:12:06;;;;;;;22.97;2.27;;;;;;;24.80;41.41;99886.38;7311250;19;128940;-38
2022/05/20 03:14:32;;;;;;;18.85;1.60;;;;;;;24.78;41.45;99890.94;7309817;19;129523;-39
2022/05/20 03:17:01;;;;;;;20.03;1.63;;;;;;;24.78;41.75;99885.69;7310722;19;129412;-38
2022/05/20 03:19:30;;;;;;;21.10;1.73;;;;;;;24.80;42.29;99891.63;7312161;19;129607;-36
2022/05/20 03:21:57;;;;;;;17.23;1.40;;;;;;;24.74;41.45;99887.00;7311706;19;129772;-38
2022/05/20 03:24:23;;;;;;;41.97;3.30;;;;;;;24.84;41.81;99892.97;7308745;19;129778;-41
2022/05/20 03:26:48;;;;;;;20.47;1.70;;;;;;;24.81;41.52;99893.28;7309244;19;130146;-38
2022/05/20 03:29:13;;;;;;;22.80;2.23;;;;;;;24.80;41.81;99897.72;7312166;19;129051;-38
2022/05/20 03:31:39;;;;;;;36.83;3.40;;;;;;;24.82;41.29;99892.31;7310549;19;154872;-38
2022/05/20 03:34:06;;;;;;;20.87;1.93;;;;;;;24.80;42.12;99896.88;7308924;19;129551;-38
2022/05/20 03:36:37;;;;;;;29.20;2.60;;;;;;;24.81;41.89;99899.34;7310257;19;129731;-38
2022/05/20 03:39:03;;;;;;;25.38;2.20;;;;;;;24.81;42.16;99898.56;7312210;19;129292;-38
2022/05/20 03:41:29;;;;;;;33.85;3.13;;;;;;;24.83;41.78;99909.72;7310184;19;130091;-38
2022/05/20 03:43:55;;;;;;;26.70;2.27;;;;;;;24.73;41.46;99894.03;7311467;19;129731;-37
2022/05/20 03:46:20;;;;;;;9.23;1.00;;;;;;;24.82;41.98;99908.09;7309494;19;131039;-38
2022/05/20 03:48:45;;;;;;;19.67;1.70;;;;;;;24.81;41.42;99911.69;7309739;19;154978;-37
2022/05/20 03:51:13;;;;;;;28.50;2.53;;;;;;;24.81;41.66;99903.81;7308216;19;153682;-38
2022/05/20 03:53:38;;;;;;;31.05;2.90;;;;;;;24.79;41.32;99905.75;7308099;19;130218;-40
2022/05/20 03:56:04;;;;;;;26.10;2.33;;;;;;;24.79;42.05;99909.19;7308466;19;132064;-36
2022/05/20 03:58:29;;;;;;;25.07;2.37;;;;;;;24.80;41.39;99915.28;7310038;19;129374;-41
2022/05/20 04:03:43;;;;;;;27.95;2.40;;;;;;;24.82;41.96;99910.72;7309099;19;130246;-37
2022/05/20 04:06:09;;;;;;;31.08;2.70;;;;;;;24.81;41.39;99912.50;7307732;19;129875;-40
2022/05/20 04:08:34;;;;;;;26.67;2.30;;;;;;;24.80;41.44;99910.88;7311147;19;128898;-40
2022/05/20 04:11:00;;;;;;;28.05;2.55;;;;;;;24.82;41.78;99915.97;7308451;19;131580;-38
2022/05/20 04:13:26;;;;;;;30.63;2.65;;;;;;;24.80;41.31;99923.19;7307553;19;157203;-38
2022/05/20 04:15:54;;;;;;;17.77;1.60;;;;;;;24.81;42.19;99930.13;7308531;19;130341;-39
2022/05/20 04:18:19;;;;;;;27.90;2.28;;;;;;;24.83;41.93;99923.72;7310065;19;128953;-40
2022/05/20 04:20:44;;;;;;;32.43;3.00;;;;;;;24.82;41.65;99931.75;7309172;19;129092;-37
2022/05/20 04:23:09;;;;;;;24.00;2.15;;;;;;;24.82;41.45;99937.00;7307717;19;158350;-39
2022/05/20 04:25:35;;;;;;;45.63;4.00;;;;;;;24.82;41.41;99937.00;7308422;19;129837;-42
2022/05/20 04:28:03;;;;;;;22.58;1.92;;;;;;;24.80;41.39;99939.78;7306747;19;129113;-37
2022/05/20 04:30:28;;;;;;;16.97;1.73;;;;;;;24.83;42.04;99946.53;7309841;19;128874;-39
2022/05/20 04:32:54;;;;;;;27.38;2.08;;;;;;;24.81;41.36;99940.63;7308149;19;158320;-37
2022/05/20 04:35:19;;;;;;;86.07;7.07;;;;;;;24.83;41.62;99949.16;7310513;19;158618;-38
2022/05/20 04:37:44;;;;;;;28.37;2.40;;;;;;;24.80;41.65;99944.22;7312564;19;142997;-37
2022/05/20 04:40:10;;;;;;;22.95;2.15;;;;;;;24.83;41.73;99949.16;7314276;19;154019;-39
2022/05/20 04:48:05;;;;;;;31.38;2.83;;;;;;;24.72;41.96;99941.53;7316015;19;129429;-38
2022/05/20 04:50:30;;;;;;;30.87;2.70;;;;;;;24.82;41.56;99963.31;7316420;19;129178;-38
2022/05/20 04:52:56;;;;;;;42.13;3.23;;;;;;;24.73;42.00;99946.63;7310493;19;133528;-40
2022/05/20 04:55:21;;;;;;;33.38;2.90;;;;;;;24.83;41.40;99971.06;7313392;19;136225;-37
2022/05/20 04:57:49;;;;;;;30.95;2.47;;;;;;;24.76;41.66;99958.66;7314328;19;129273;-40
2022/05/20 05:00:20;;;;;;;34.88;3.15;;;;;;;24.81;41.96;99977.44;7314215;19;129132;-40
2022/05/20 05:02:45;;;;;;;25.55;2.22;;;;;;;24.82;41.75;99968.56;7315117;19;129568;-38
2022/05/20 05:05:14;;;;;;;44.40;4.00;;;;;;;24.84;42.05;99977.16;7311015;19;131605;-40
2022/05/20 05:07:43;;;;;;;27.30;2.42;;;;;;;24.83;42.32;99989.47;7312932;19;130973;-38
2022/05/20 05:10:10;;;;;;;30.50;2.85;;;;;;;24.85;41.52;99989.31;7313057;19;129432;-40
2022/05/20 05:12:36;;;;;;;39.20;3.55;;;;;;;24.81;41.67;99990.59;7313272;19;129436;-41
2022/05/20 05:15:03;;;;;;;28.23;2.70;;;;;;;24.81;42.16;99993.22;7312067;19;130493;-39
2022/05/20 05:20:16;;;;;;;48.00;4.15;;;;;;;24.85;41.95;99997.19;7314052;19;128979;-40
2022/05/20 05:22:41;;;;;;;31.48;2.83;;;;;;;24.87;41.93;99997.88;7310165;19;132304;-38
2022/05/20 05:25:08;;;;;;;29.33;2.47;;;;;;;24.84;42.17;99998.19;7311709;19;159431;-37
2022/05/20 05:27:33;;;;;;;53.80;4.30;;;;;;;24.86;42.10;100002.31;7308055;19;128878;-39
2022/05/20 05:29:59;;;;;;;26.73;2.30;;;;;;;24.84;41.39;99998.19;7311792;19;154030;-40
2022/05/20 05:32:24;;;;;;;27.40;2.23;;;;;;;24.83;41.79;100007.03;7313858;19;130619;-41
2022/05/20 05:34:49;;;;;;;32.10;2.80;;;;;;;24.84;41.48;100008.69;7309605;19;158586;-41
2022/05/20 05:37:15;;;;;;;27.00;2.47;;;;;;;24.84;41.94;100003.44;7309011;19;154393;-39
2022/05/20 05:39:40;;;;;;;30.40;2.80;;;;;;;24.89;41.42;100001.19;7312762;19;138383;-38
2022/05/20 05:42:05;;;;;;;89.00;8.80;;;;;;;24.87;41.81;100003.13;7304467;19;129707;-35
2022/05/20 05:44:31;;;;;;;140.40;13.87;;;;;;;24.83;42.05;100007.03;7288664;19;131057;-39
2022/05/20 05:46:56;;;;;;;47.87;4.67;;;;;;;24.83;41.94;99996.50;7306230;19;156088;-39
2022/05/20 05:49:22;;;;;;;25.73;2.20;;;;;;;24.86;41.69;99993.59;7312966;19;143138;-39
2022/05/20 05:51:48;;;;;;;24.47;2.07;;;;;;;24.76;42.09;99974.44;7304891;19;129906;-37
2022/05/20 05:54:13;;;;;;;27.30;2.30;;;;;;;24.83;42.01;99992.09;7311431;19;158576;-40
2022/05/20 05:56:38;;;;;;;37.20;3.17;;;;;;;24.83;41.79;99992.09;7311210;19;130312;-40
2022/05/20 05:59:04;;;;;;;31.17;2.93;;;;;;;24.82;42.09;99990.44;7314203;19;129127;-41
2022/05/20 06:01:29;;;;;;;26.00;2.30;;;;;;;24.83;42.01;99986.81;7310635;19;150928;-38
2022/05/20 06:03:55;;;;;;;27.75;2.40;;;;;;;24.84;42.01;99987.66;7311956;19;159196;-41
2022/05/20 06:06:20;;;;;;;21.27;1.70;;;;;;;24.84;41.64;99979.78;7310918;19;129684;-42
2022/05/20 06:08:45;;;;;;;29.45;2.58;;;;;;;24.86;42.14;99996.25;7312305;19;128982;-41
2022/05/20 06:11:11;;;;;;;28.97;2.93;;;;;;;24.79;42.05;99979.41;7310763;19;133221;-38
2022/05/20 06:13:36;;;;;;;31.77;2.77;;;;;;;24.87;42.01;99987.34;7312063;19;129755;-37
2022/05/20 06:16:01;;;;;;;32.37;2.70;;;;;;;24.86;41.87;99990.97;7309711;19;154348;-38
2022/05/20 06:18:27;;;;;;;22.63;1.80;;;;;;;24.84;41.65;99985.03;7310813;19;148153;-41
2022/05/20 06:20:53;;;;;;;28.37;2.47;;;;;;;24.84;42.35;99987.66;7308360;19;129481;-37
2022/05/20 06:23:18;;;;;;;17.95;1.63;;;;;;;24.88;41.77;99983.72;7310141;19;130558;-36
2022/05/20 06:25:44;;;;;;;33.30;3.00;;;;;;;24.86;42.50;99983.88;7310943;19;128941;-37
2022/05/20 06:28:17;;;;;;;19.57;2.10;;;;;;;24.90;41.54;99987.06;7311705;19;154303;-37
2022/05/20 06:30:43;;;;;;;19.05;2.05;;;;;;;24.88;41.76;99986.38;7311583;19;129348;-37
2022/05/20 06:33:09;;;;;;;27.57;2.53;;;;;;;24.88;41.63;99995.09;7313462;19;130936;-36
2022/05/20 06:41:04;;;;;;;32.85;2.95;;;;;;;24.87;41.61;99995.25;7312071;19;130118;-40
2022/05/20 06:43:30;;;;;;;24.30;2.10;;;;;;;24.85;41.95;99990.13;7311724;19;158184;-39
2022/05/20 06:45:58;;;;;;;23.30;1.87;;;;;;;24.91;42.27;99978.16;7311743;19;129578;-37
2022/05/20 06:48:24;;;;;;;21.08;1.83;;;;;;;24.88;41.98;99989.00;7314184;19;130084;-41
2022/05/20 06:50:50;;;;;;;11.35;1.20;;;;;;;24.87;41.82;99982.09;7312750;19;130863;-38
2022/05/20 06:53:15;;;;;;;34.30;3.27;;;;;;;24.89;41.74;99985.41;7310345;19;129759;-37
2022/05/20 06:55:41;;;;;;;34.63;2.93;;;;;;;24.79;42.03;99969.69;7308387;19;129285;-40
2022/05/20 06:58:06;;;;;;;34.63;3.20;;;;;;;25.36;43.58;99984.16;7294507;19;129829;-39
2022/05/20 07:00:32;;;;;;;34.57;3.13;;;;;;;25.67;43.63;99980.06;7311771;19;129963;-36
2022/05/20 07:02:58;;;;;;;13.10;1.37;;;;;;;25.76;44.71;99981.75;7312295;19;130120;-42
2022/05/20 07:05:23;;;;;;;40.53;4.00;;;;;;;25.80;44.97;99967.28;7311454;19;128862;-41
2022/05/20 07:07:49;;;;;;;8.13;1.37;;;;;;;25.95;45.08;99985.97;7310016;19;128922;-39
2022/05/20 07:10:16;;;;;;;26.03;2.80;;;;;;;25.97;45.37;99969.00;7311526;19;129772;-38
2022/05/20 07:12:41;;;;;;;32.90;3.08;;;;;;;26.04;45.37;99988.50;7310962;19;129408;-41
2022/05/20 07:15:07;;;;;;;24.17;2.67;;;;;;;26.05;45.75;99987.50;7310318;19;129458;-40
2022/05/20 07:17:33;;;;;;;29.30;3.10;;;;;;;26.10;45.71;99979.94;7307934;19;129522;-40
2022/05/20 07:19:59;;;;;;;28.83;3.10;;;;;;;26.10;45.14;99990.50;7312119;19;130538;-38
2022/05/20 07:22:25;;;;;;;22.90;2.43;;;;;;;26.10;46.38;99989.69;7309658;19;157021;-36
2022/05/20 07:24:50;;;;;;;8.73;1.70;;;;;;;26.10;46.07;99995.75;7312333;19;128798;-41
2022/05/20 07:27:17;;;;;;;28.30;2.77;;;;;;;25.98;47.57;99991.72;7309402;19;129802;-41
2022/05/20 07:29:42;;;;;;;33.95;3.45;;;;;;;25.92;46.74;99981.81;7311654;19;130879;-40
2022/05/20 07:32:08;;;;;;;24.30;2.93;;;;;;;25.95;47.04;99991.25;7311757;19;129603;-41
2022/05/20 07:34:34;;;;;;;29.30;3.58;;;;;;;25.94;47.27;99986.94;7309955;19;129221;-39
2022/05/20 07:36:59;;;;;;;28.23;2.80;;;;;;;26.02;47.08;99976.47;7269145;19;130780;-37
2022/05/20 07:39:25;;;;;;;21.70;2.17;;;;;;;26.10;46.62;99973.88;7311755;19;136954;-40
2022/05/20 07:41:51;;;;;;;25.20;2.80;;;;;;;26.17;46.39;99988.88;7311192;19;131718;-40
2022/05/20 07:44:17;;;;;;;26.98;2.80;;;;;;;26.18;46.35;99979.16;7311093;19;129131;-39
2022/05/20 07:46:43;;;;;;;23.57;2.70;;;;;;;26.14;47.51;99976.03;7310699;19;128790;-40
2022/05/20 07:49:08;;;;;;;36.07;3.83;;;;;;;26.14;47.51;99962.00;7309981;19;158666;-39
2022/05/20 07:51:34;;;;;;;23.27;2.83;;;;;;;26.20;47.61;99964.00;7310654;19;158408;-37
2022/05/20 07:54:04;;;;;;;25.03;3.13;;;;;;;26.18;47.65;99955.44;7311571;19;129383;-42
2022/05/20 07:56:40;;;;;;;22.42;2.70;;;;;;;26.15;48.54;99951.31;7308955;19;129414;-39
2022/05/20 07:59:12;;;;;;;22.73;2.78;;;;;;;26.13;47.32;99958.53;7311666;19;129487;-38
2022/05/20 08:01:41;;;;;;;28.35;3.53;;;;;;;26.17;47.60;99964.31;7310946;19;129488;-38
2022/05/20 08:07:07;;;;;;;20.23;2.33;;;;;;;26.05;47.95;99942.72;7308479;19;130139;-37
2022/05/20 08:09:33;;;;;;;28.05;3.47;;;;;;;26.15;47.48;99953.94;7317659;19;129907;-38
2022/05/20 08:11:59;;;;;;;28.03;3.27;;;;;;;26.16;47.66;99960.88;7315604;19;157439;-37
2022/05/20 08:14:26;;;;;;;25.55;3.15;;;;;;;26.16;47.57;99944.25;7317188;19;129639;-39
2022/05/20 08:16:51;;;;;;;;;;;;;;;26.16;49.36;99954.78;7315742;19;129649;-40
2022/05/20 08:19:16;;;;;;;15.38;2.08;;;;;;;26.10;47.48;99945.69;7317643;19;130718;-37
2022/05/20 08:21:42;;;;;;;23.93;3.37;;;;;;;26.12;47.50;99942.91;7315581;19;158357;-39
2022/05/20 08:24:07;;;;;;;23.97;3.03;;;;;;;26.07;47.83;99935.47;7317400;19;128898;-40
2022/05/20 08:26:33;;;;;;;37.00;4.33;;;;;;;25.97;47.66;99920.75;7313297;19;148535;-38
2022/05/20 08:28:59;;;;;;;15.57;2.10;;;;;;;26.09;48.39;99928.25;7315802;19;159072;-37
2022/05/20 08:31:24;;;;;;;20.60;2.57;;;;;;;26.09;47.83;99927.41;7318412;19;130391;-37
2022/05/20 08:33:50;;;;;;;26.90;2.97;;;;;;;26.06;48.07;99915.41;7316422;19;155943;-37
2022/05/20 08:36:16;;;;;;;21.80;2.92;;;;;;;26.11;47.91;99920.19;7313688;19;129790;-37
2022/05/20 08:38:42;;;;;;;32.97;3.67;;;;;;;26.19;48.04;99917.56;7316930;19;129142;-38
2022/05/20 08:41:28;;;;;;;33.07;3.73;;;;;;;26.08;50.14;99908.13;7316586;19;129999;-39
2022/05/20 08:43:53;;;;;;;27.30;3.28;;;;;;;26.20;48.20;99906.00;7316837;19;129025;-39
2022/05/20 08:46:22;;;;;;;17.17;2.63;;;;;;;26.13;48.71;99907.66;7314534;19;129492;-39
2022/05/20 08:48:51;;;;;;;29.92;3.55;;;;;;;26.14;48.69;99902.22;7316982;19;129705;-40
2022/05/20 08:51:18;;;;;;;24.00;2.80;;;;;;;26.12;49.33;99914.75;7315588;19;129308;-37
2022/05/20 08:53:48;;;;;;;34.10;4.05;;;;;;;26.16;48.93;99908.16;7314505;19;128813;-37
2022/05/20 08:56:24;;;;;;;31.58;3.92;;;;;;;26.18;50.36;99911.44;7313851;19;129132;-37
2022/05/20 08:58:57;;;;;;;20.58;2.80;;;;;;;26.16;49.67;99921.34;7317443;19;129491;-40
2022/05/20 09:01:41;;;;;;;20.92;2.85;;;;;;;26.09;50.35;99903.69;7316080;19;129104;-38
2022/05/20 09:04:09;;;;;;;30.80;3.75;;;;;;;26.12;49.10;99925.28;7316002;19;129038;-37
2022/05/20 09:06:59;;;;;;;23.83;2.95;;;;;;;26.13;50.63;99926.13;7314205;19;129234;-39
2022/05/20 09:09:28;;;;;;;27.13;3.28;;;;;;;26.16;49.45;99926.63;7316031;19;130193;-40
2022/05/20 09:11:56;;;;;;;12.00;2.58;;;;;;;26.13;49.75;99924.28;7315691;19;129758;-39
2022/05/20 09:17:24;;;;;;;30.58;3.95;;;;;;;26.09;50.43;99899.25;7313574;19;128936;-37
2022/05/20 09:19:57;;;;;;;20.27;2.83;;;;;;;26.12;50.67;99930.56;7316305;19;129546;-38
2022/05/20 09:22:37;;;;;;;27.48;3.22;;;;;;;26.15;50.13;99919.69;7315969;19;130494;-38
2022/05/20 09:25:11;;;;;;;26.10;3.47;;;;;;;26.07;50.60;99917.03;7315087;19;129496;-38
2022/05/20 09:27:39;;;;;;;32.90;4.00;;;;;;;26.09;49.09;99930.88;7311244;19;154858;-38
2022/05/20 09:30:12;;;;;;;31.67;4.00;;;;;;;25.99;50.59;99908.25;7314942;19;128969;-38
2022/05/20 09:32:43;;;;;;;29.52;3.58;;;;;;;26.13;50.22;99916.38;7314739;19;130407;-38
2022/05/20 09:35:18;;;;;;;31.80;3.88;;;;;;;26.15;50.24;99916.22;7313240;19;128956;-38
2022/05/20 09:37:49;;;;;;;32.13;3.95;;;;;;;26.15;49.17;99918.84;7310262;19;154072;-38
2022/05/20 09:40:21;;;;;;;27.05;3.45;;;;;;;26.20;50.39;99914.75;7315044;19;132836;-38
2022/05/20 09:43:08;;;;;;;75.22;7.57;;;;;;;26.07;50.61;99903.84;7313385;19;130093;-38
2022/05/20 09:45:47;;;;;;;36.55;4.15;;;;;;;26.18;50.27;99924.63;7312929;19;131860;-38
2022/05/20 09:48:19;;;;;;;18.60;2.78;;;;;;;26.10;49.78;99914.06;7315339;19;129422;-38
2022/05/20 09:51:01;;;;;;;26.73;3.08;;;;;;;26.12;51.05;99898.94;7314179;19;129152;-38
2022/05/20 09:53:38;;;;;;;25.90;3.25;;;;;;;26.12;50.56;99890.19;7314284;19;129128;-38
2022/05/20 09:56:23;;;;;;;34.47;4.13;;;;;;;26.11;50.92;99889.38;7310852;19;130075;-38
2022/05/20 09:59:20;;;;;;;25.55;3.38;;;;;;;26.11;51.32;99883.28;7313410;19;129555;-38
2022/05/20 10:01:57;;;;;;;24.35;3.05;;;;;;;26.08;50.42;99886.25;7311041;19;131844;-38
2022/05/20 10:04:34;;;;;;;22.20;2.88;;;;;;;26.02;51.01;99877.16;7314000;19;130506;-38
2022/05/20 10:07:02;;;;;;;30.73;3.72;;;;;;;26.08;50.54;99871.22;7312127;19;129395;-38
2022/05/20 10:09:39;;;;;;;17.77;2.50;;;;;;;26.10;50.79;99873.72;7314184;19;129370;-38
2022/05/20 10:12:11;;;;;;;26.95;3.63;;;;;;;26.12;50.41;99862.03;7312294;19;131075;-37
2022/05/20 10:14:56;;;;;;;22.88;3.05;;;;;;;26.12;51.20;99850.66;7314158;19;130439;-38
2022/05/20 10:17:46;;;;;;;20.65;2.63;;;;;;;26.16;51.22;99852.81;7309576;19;129062;-38
2022/05/20 10:20:42;;;;;;;31.58;3.80;;;;;;;26.07;51.49;99837.97;7313892;19;129570;-37
2022/05/20 10:23:32;;;;;;;33.40;4.05;;;;;;;26.19;51.74;99843.75;7312179;19;130213;-38
2022/05/20 10:26:26;;;;;;;11.57;2.38;;;;;;;26.14;50.32;99836.34;7314225;19;130798;-38
2022/05/20 10:34:36;;;;;;;33.45;3.97;;;;;;;26.15;50.14;99831.88;7313109;19;128972;-38
2022/05/20 10:37:05;;;;;;;29.70;3.67;;;;;;;26.15;50.63;99823.97;7311714;19;130020;-38
2022/05/20 10:39:49;;;;;;;24.45;2.88;;;;;;;26.14;49.82;99819.69;7313275;19;129628;-37
2022/05/20 10:42:14;;;;;;;23.75;3.22;;;;;;;26.09;49.87;99812.28;7313902;19;129255;-38
2022/05/20 10:51:09;;;;;;;27.67;3.53;;;;;;;26.10;51.36;99806.03;7312437;19;130181;-38
2022/05/20 10:54:00;;;;;;;31.20;3.80;;;;;;;26.09;51.69;99793.84;7312002;19;129084;-38
2022/05/20 10:56:30;;;;;;;26.38;3.70;;;;;;;26.11;50.82;99785.78;7309556;19;130741;-38
2022/05/20 10:59:25;;;;;;;27.60;3.08;;;;;;;26.07;51.07;99774.72;7312753;19;130958;-38
2022/05/20 11:02:07;;;;;;;21.55;2.55;;;;;;;26.09;52.07;99770.13;7312708;19;129132;-38
2022/05/20 11:04:55;;;;;;;22.42;2.83;;;;;;;26.09;52.01;99767.50;7312130;19;129338;-38
2022/05/20 11:07:26;;;;;;;;;;;;;;;26.12;51.80;99761.06;7310553;19;129589;-38
2022/05/20 11:10:14;;;;;;;21.52;2.85;;;;;;;26.10;51.90;99753.31;7311966;19;130928;-38
2022/05/20 11:12:52;;;;;;;32.58;3.97;;;;;;;26.05;50.88;99757.44;7312675;19;129377;-38
2022/05/20 11:15:49;;;;;;;41.60;4.75;;;;;;;26.07;52.31;99743.09;7309750;19;128877;-38
2022/05/20 11:18:44;;;;;;;20.27;2.72;;;;;;;26.03;51.90;99731.25;7312661;19;129252;-38
2022/05/20 11:21:28;;;;;;;20.73;3.13;;;;;;;26.04;51.48;99724.16;7312935;19;130428;-38
2022/05/20 11:24:38;;;;;;;22.52;2.72;;;;;;;26.03;51.50;99722.53;7311893;19;128958;-37
2022/05/20 11:27:23;;;;;;;18.40;2.83;;;;;;;26.02;52.21;99719.06;7307767;19;129972;-38
2022/05/20 11:30:15;;;;;;;29.67;3.65;;;;;;;26.01;52.27;99714.78;7311631;19;130150;-38
2022/05/20 11:32:55;;;;;;;32.88;4.10;;;;;;;26.07;50.77;99705.38;7310617;19;131078;-39
2022/05/20 11:35:37;;;;;;;34.40;4.35;;;;;;;26.06;51.85;99701.13;7308850;19;129457;-38
2022/05/20 11:38:19;;;;;;;17.83;2.42;;;;;;;26.05;51.19;99692.38;7311224;19;129004;-36
2022/05/20 11:41:04;;;;;;;27.58;3.42;;;;;;;26.02;50.31;99687.44;7310597;19;129502;-38
2022/05/20 11:43:48;;;;;;;20.13;2.72;;;;;;;26.02;52.44;99681.34;7312087;19;131183;-38
2022/05/20 11:46:31;;;;;;;20.98;2.80;;;;;;;26.01;51.83;99684.94;7310061;19;128852;-38
2022/05/20 11:49:14;;;;;;;23.23;3.30;;;;;;;26.01;50.78;99680.53;7311194;19;145529;-37
2022/05/20 11:52:21;;;;;;;28.40;3.42;;;;;;;25.99;52.22;99687.75;7309777;19;129634;-38
2022/05/20 11:54:54;;;;;;;31.52;3.63;;;;;;;26.00;52.05;99678.84;7308660;19;129458;-38
2022/05/20 11:57:25;;;;;;;22.17;2.80;;;;;;;25.97;50.20;99684.44;7309267;19;130010;-38
2022/05/20 12:00:03;;;;;;;42.22;5.20;;;;;;;25.95;52.24;99675.88;7309046;19;129377;-35
2022/05/20 12:02:33;;;;;;;24.35;3.03;;;;;;;25.99;50.79;99656.13;7310691;19;130621;-38
2022/05/20 12:05:00;;;;;;;33.53;4.22;;;;;;;25.99;50.15;99656.13;7311334;19;131702;-38
2022/05/20 12:07:26;;;;;;;28.23;3.67;;;;;;;25.98;50.77;99649.19;7308478;19;130256;-38
2022/05/20 12:09:56;;;;;;;23.65;2.97;;;;;;;25.91;51.03;99642.13;7311698;19;128764;-38
2022/05/20 12:12:28;;;;;;;17.98;2.55;;;;;;;25.93;50.77;99655.97;7309371;19;129634;-38